Time;durP1;ratioP1;P1;durP2;ratioP2;P2;SDS_P1;SDS_P2;PMS_P1;PMS_P2;Temp;Humidity;BMP_temperature;BMP_pressure;BME280_temperature;BME280_humidity;BME280_pressure;Samples;Min_cycle;Max_cycle;Signal;HPM_P1;HPM_P2
2021/08/31 00:01:00;;;;;;;7.95;4.28;;;16.70;87.00;;;;;;5043913;28;20049;-77
2021/08/31 00:03:28;;;;;;;5.50;3.25;;;16.70;87.10;;;;;;5016963;28;20044;-77
2021/08/31 00:05:55;;;;;;;6.00;3.67;;;16.60;87.10;;;;;;5001272;28;20041;-77
2021/08/31 00:08:23;;;;;;;7.60;4.60;;;16.70;87.10;;;;;;5027339;28;20053;-77
2021/08/31 00:10:50;;;;;;;7.55;4.10;;;16.70;87.20;;;;;;5048054;28;20119;-78
2021/08/31 00:13:17;;;;;;;8.57;4.88;;;16.60;87.20;;;;;;5046541;28;20061;-78
2021/08/31 00:15:44;;;;;;;6.43;3.67;;;16.60;87.30;;;;;;5011272;28;20037;-78
2021/08/31 00:18:11;;;;;;;9.43;4.55;;;16.60;87.30;;;;;;5017193;28;20186;-77
2021/08/31 00:20:38;;;;;;;7.47;4.25;;;16.60;87.30;;;;;;4999136;28;20053;-77
2021/08/31 00:23:05;;;;;;;9.05;5.35;;;16.60;87.40;;;;;;5029630;28;20151;-78
2021/08/31 00:25:32;;;;;;;7.03;4.38;;;16.60;87.50;;;;;;5031887;28;20119;-78
2021/08/31 00:27:59;;;;;;;9.27;5.55;;;16.60;87.50;;;;;;5033978;28;20064;-78
2021/08/31 00:30:28;;;;;;;9.50;5.10;;;16.60;87.50;;;;;;5004893;28;20057;-77
2021/08/31 00:32:55;;;;;;;6.25;3.72;;;16.60;87.60;;;;;;5013779;28;20033;-78
2021/08/31 00:35:22;;;;;;;7.13;4.10;;;16.60;87.70;;;;;;5010349;28;20100;-78
2021/08/31 00:37:50;;;;;;;5.53;3.40;;;16.50;87.70;;;;;;5018325;28;20037;-78
2021/08/31 00:40:18;;;;;;;7.05;4.40;;;16.50;87.80;;;;;;5042237;28;20056;-78
2021/08/31 00:42:45;;;;;;;4.55;2.40;;;16.50;88.00;;;;;;5014145;28;20780;-77
2021/08/31 00:45:12;;;;;;;6.93;3.67;;;16.40;88.00;;;;;;5025109;28;20714;-78
2021/08/31 00:47:39;;;;;;;8.10;3.72;;;16.50;88.10;;;;;;5047727;28;20065;-78
2021/08/31 00:50:06;;;;;;;7.13;4.00;;;16.40;88.00;;;;;;5049852;28;20083;-78
2021/08/31 00:52:33;;;;;;;6.68;3.38;;;16.40;88.10;;;;;;5001255;28;20051;-80
2021/08/31 00:55:01;;;;;;;7.38;3.55;;;16.30;88.20;;;;;;5042656;28;20041;-80
2021/08/31 00:57:28;;;;;;;5.03;3.30;;;16.30;88.40;;;;;;5045566;28;20068;-80
2021/08/31 00:59:55;;;;;;;5.78;3.38;;;16.30;88.40;;;;;;5029931;28;20091;-80
2021/08/31 01:02:22;;;;;;;8.02;3.45;;;16.30;88.40;;;;;;5012278;28;20045;-80
2021/08/31 01:04:50;;;;;;;7.32;4.32;;;16.30;88.40;;;;;;5018703;28;20044;-78
2021/08/31 01:07:17;;;;;;;7.63;4.13;;;16.30;88.40;;;;;;5001957;28;20107;-78
2021/08/31 01:09:45;;;;;;;6.82;3.70;;;16.30;88.40;;;;;;5029556;28;20102;-78
2021/08/31 01:12:12;;;;;;;5.35;2.92;;;16.30;88.40;;;;;;5012899;28;20456;-78
2021/08/31 01:14:40;;;;;;;5.57;3.45;;;16.30;88.40;;;;;;5047806;28;20042;-78
2021/08/31 01:17:08;;;;;;;5.78;3.58;;;16.30;88.40;;;;;;5015172;28;20052;-78
2021/08/31 01:19:35;;;;;;;6.78;4.28;;;16.40;88.50;;;;;;5009367;28;20087;-77
2021/08/31 01:22:11;;;;;;;7.68;3.95;;;16.30;88.60;;;;;;5031198;28;20566;-78
2021/08/31 01:24:43;;;;;;;8.68;4.82;;;16.40;88.60;;;;;;5033624;28;20586;-78
2021/08/31 01:27:11;;;;;;;7.63;3.97;;;16.40;88.60;;;;;;5034213;28;20043;-78
2021/08/31 01:29:38;;;;;;;6.35;3.67;;;16.40;88.60;;;;;;5018448;28;20048;-78
2021/08/31 01:32:06;;;;;;;7.10;4.63;;;16.50;88.60;;;;;;5046838;28;20764;-78
2021/08/31 01:34:33;;;;;;;5.82;3.33;;;16.50;88.50;;;;;;5008256;28;20095;-78
2021/08/31 01:37:00;;;;;;;5.38;2.92;;;16.40;88.40;;;;;;5045544;28;20980;-78
2021/08/31 01:39:27;;;;;;;5.57;3.53;;;16.40;88.50;;;;;;5016243;28;20045;-77
2021/08/31 01:41:54;;;;;;;4.93;2.70;;;16.40;88.60;;;;;;5029119;28;20113;-78
2021/08/31 01:44:22;;;;;;;6.57;4.05;;;16.40;89.30;;;;;;5031800;28;20136;-78
2021/08/31 01:46:49;;;;;;;6.75;3.22;;;16.30;88.80;;;;;;5024572;28;20119;-77
2021/08/31 01:49:15;;;;;;;5.53;3.03;;;16.30;88.80;;;;;;5030992;28;20103;-77
2021/08/31 01:51:42;;;;;;;5.28;3.45;;;16.40;88.90;;;;;;5029538;28;20033;-78
2021/08/31 01:54:10;;;;;;;7.32;4.28;;;16.40;88.90;;;;;;5029854;28;20484;-78
2021/08/31 01:56:36;;;;;;;5.70;3.38;;;16.30;88.90;;;;;;5025706;28;20477;-78
2021/08/31 01:59:04;;;;;;;5.55;3.40;;;16.30;89.00;;;;;;5029396;28;20038;-78
2021/08/31 02:01:31;;;;;;;6.72;4.18;;;16.30;89.00;;;;;;5000096;28;20896;-78
2021/08/31 02:03:58;;;;;;;5.88;3.75;;;16.30;89.10;;;;;;5027571;28;20041;-78
2021/08/31 02:06:26;;;;;;;7.95;3.83;;;16.30;89.10;;;;;;5000667;28;20045;-78
2021/08/31 02:08:52;;;;;;;8.68;3.55;;;16.30;89.10;;;;;;5029541;28;20087;-78
2021/08/31 02:11:19;;;;;;;7.57;3.95;;;16.20;89.20;;;;;;5008770;28;20116;-77
2021/08/31 02:13:46;;;;;;;4.85;3.10;;;16.20;89.20;;;;;;5037436;28;20111;-78
2021/08/31 02:16:14;;;;;;;6.65;3.83;;;16.20;89.20;;;;;;5010072;28;20037;-78
2021/08/31 02:18:41;;;;;;;9.52;3.75;;;16.20;89.30;;;;;;5028215;28;20067;-78
2021/08/31 02:21:10;;;;;;;7.80;4.22;;;16.20;89.30;;;;;;5021625;28;20581;-78
2021/08/31 02:23:38;;;;;;;6.30;3.90;;;16.20;89.30;;;;;;5043706;28;20048;-78
2021/08/31 02:26:05;;;;;;;8.43;3.75;;;16.20;89.30;;;;;;5024566;28;20049;-78
2021/08/31 02:28:33;;;;;;;5.18;3.05;;;16.20;89.40;;;;;;5015648;28;20094;-77
2021/08/31 02:31:00;;;;;;;6.53;3.30;;;16.20;89.30;;;;;;5011744;28;20047;-78
2021/08/31 02:33:27;;;;;;;7.95;3.97;;;16.20;89.30;;;;;;5027386;28;20045;-78
2021/08/31 02:35:54;;;;;;;5.20;3.22;;;16.20;89.40;;;;;;5025511;28;20439;-77
2021/08/31 02:38:21;;;;;;;4.07;2.53;;;16.20;89.40;;;;;;5023784;28;20049;-78
2021/08/31 02:40:48;;;;;;;6.90;3.25;;;16.20;89.30;;;;;;5033487;28;20119;-78
2021/08/31 02:43:16;;;;;;;5.25;2.90;;;16.20;89.40;;;;;;5029686;28;20044;-78
2021/08/31 02:45:43;;;;;;;5.15;3.15;;;16.10;89.50;;;;;;5019466;28;20107;-77
2021/08/31 02:48:10;;;;;;;4.57;2.78;;;16.10;89.50;;;;;;5046582;28;20135;-78
2021/08/31 02:50:37;;;;;;;5.93;3.17;;;16.10;89.60;;;;;;5022604;28;20128;-78
2021/08/31 02:53:04;;;;;;;3.60;2.00;;;16.10;89.60;;;;;;4999605;28;20782;-78
2021/08/31 02:55:31;;;;;;;5.22;2.83;;;16.10;89.60;;;;;;5030361;28;20151;-78
2021/08/31 02:57:58;;;;;;;7.00;3.47;;;16.10;89.60;;;;;;5011094;28;20076;-77
2021/08/31 03:00:30;;;;;;;5.50;3.13;;;16.10;89.70;;;;;;5029519;28;20131;-78
2021/08/31 03:02:58;;;;;;;5.57;2.60;;;16.10;89.70;;;;;;4997045;28;20043;-77
2021/08/31 03:05:25;;;;;;;5.57;2.55;;;16.10;89.80;;;;;;5042095;28;20382;-78
2021/08/31 03:07:53;;;;;;;5.57;2.70;;;16.10;89.80;;;;;;5028917;28;20033;-78
2021/08/31 03:10:21;;;;;;;5.45;2.58;;;16.10;89.80;;;;;;4995091;28;20073;-78
2021/08/31 03:12:48;;;;;;;5.32;2.20;;;16.00;89.80;;;;;;5044699;28;20116;-77
2021/08/31 03:15:15;;;;;;;5.43;2.78;;;16.00;89.90;;;;;;5015272;28;20041;-77
2021/08/31 03:17:42;;;;;;;6.05;2.78;;;16.00;89.90;;;;;;5000147;28;20049;-77
2021/08/31 03:20:10;;;;;;;6.13;2.70;;;16.00;89.90;;;;;;5055034;28;20063;-77
2021/08/31 03:22:37;;;;;;;5.63;2.90;;;16.10;89.90;;;;;;5020801;28;20876;-76
2021/08/31 03:25:04;;;;;;;7.53;2.95;;;16.10;89.90;;;;;;5010457;28;20045;-76
2021/08/31 03:27:35;;;;;;;4.55;2.53;;;16.10;89.80;;;;;;5011864;28;20052;-77
2021/08/31 03:30:04;;;;;;;5.95;3.28;;;16.20;89.80;;;;;;5037929;28;20041;-77
2021/08/31 03:32:31;;;;;;;8.52;3.63;;;16.20;89.80;;;;;;5046874;28;20147;-76
2021/08/31 03:34:58;;;;;;;6.03;3.50;;;16.20;89.80;;;;;;5020167;28;20075;-76
2021/08/31 03:37:25;;;;;;;8.00;3.92;;;16.30;89.70;;;;;;5031729;28;20487;-76
2021/08/31 03:39:52;;;;;;;8.55;4.43;;;16.30;89.70;;;;;;5013798;28;20083;-76
2021/08/31 03:42:19;;;;;;;6.25;3.28;;;16.30;89.60;;;;;;5031656;28;20029;-76
2021/08/31 03:44:46;;;;;;;6.63;3.75;;;16.30;89.60;;;;;;5017758;28;21099;-76
2021/08/31 03:47:14;;;;;;;5.00;2.70;;;16.30;89.70;;;;;;5035978;28;20042;-76
2021/08/31 03:49:41;;;;;;;7.68;4.32;;;16.30;89.60;;;;;;5016879;28;20107;-76
2021/08/31 03:52:10;;;;;;;6.85;3.88;;;16.30;89.70;;;;;;5049429;28;20122;-76
2021/08/31 03:54:37;;;;;;;6.00;2.83;;;16.30;89.70;;;;;;5017799;28;20580;-77
2021/08/31 03:57:04;;;;;;;7.10;3.75;;;16.30;89.60;;;;;;5011471;28;20095;-76
2021/08/31 03:59:31;;;;;;;7.85;3.45;;;16.40;89.80;;;;;;5031748;28;20949;-76
2021/08/31 04:01:58;;;;;;;7.30;4.20;;;16.40;89.70;;;;;;5012989;28;20047;-76
2021/08/31 04:04:25;;;;;;;9.65;3.88;;;16.40;89.80;;;;;;5015191;28;20041;-76
2021/08/31 04:06:52;;;;;;;10.43;4.28;;;16.40;89.70;;;;;;5016150;28;20069;-76
2021/08/31 04:09:19;;;;;;;11.30;5.10;;;16.40;89.70;;;;;;5031334;28;20088;-76
2021/08/31 04:11:46;;;;;;;9.13;4.13;;;16.40;89.60;;;;;;5015759;28;20072;-76
2021/08/31 04:14:13;;;;;;;6.15;3.10;;;16.50;89.70;;;;;;5028424;28;20087;-76
2021/08/31 04:16:40;;;;;;;7.40;4.25;;;16.50;89.70;;;;;;5012549;28;20124;-76
2021/08/31 04:19:07;;;;;;;6.50;3.58;;;16.50;89.70;;;;;;5023803;28;20037;-76
2021/08/31 04:21:34;;;;;;;9.35;3.10;;;16.50;89.70;;;;;;4999129;28;20075;-76
2021/08/31 04:24:02;;;;;;;6.05;2.75;;;16.50;89.70;;;;;;4999612;28;20048;-76
2021/08/31 04:26:30;;;;;;;4.80;1.58;;;16.50;89.70;;;;;;5012262;28;20069;-76
2021/08/31 04:28:57;;;;;;;5.90;2.55;;;16.50;89.60;;;;;;5018823;28;20429;-76
2021/08/31 04:31:24;;;;;;;6.68;2.58;;;16.60;89.70;;;;;;5032703;28;21490;-76
2021/08/31 04:33:52;;;;;;;5.05;2.75;;;16.60;89.70;;;;;;5028986;28;20183;-76
2021/08/31 04:36:19;;;;;;;4.22;2.15;;;16.60;89.60;;;;;;5016782;28;20045;-76
2021/08/31 04:38:46;;;;;;;6.13;1.95;;;16.60;89.60;;;;;;5022467;28;20047;-76
2021/08/31 04:41:13;;;;;;;5.68;2.47;;;16.60;89.60;;;;;;5032903;28;20029;-76
2021/08/31 04:43:40;;;;;;;6.15;2.25;;;16.60;89.50;;;;;;5026432;28;20509;-76
2021/08/31 04:46:09;;;;;;;6.75;2.15;;;16.70;89.60;;;;;;5024632;28;20489;-77
2021/08/31 04:48:39;;;;;;;6.03;2.22;;;16.70;89.50;;;;;;5030857;28;20037;-78
2021/08/31 04:51:06;;;;;;;6.72;2.40;;;16.70;89.40;;;;;;5030385;28;20041;-77
2021/08/31 04:53:33;;;;;;;8.07;3.15;;;16.70;89.40;;;;;;5045094;28;20478;-77
2021/08/31 04:56:00;;;;;;;7.55;2.30;;;16.70;89.40;;;;;;5015194;28;20048;-77
2021/08/31 04:58:28;;;;;;;5.18;2.00;;;16.70;89.30;;;;;;5031221;28;20048;-76
2021/08/31 05:00:54;;;;;;;3.35;1.63;;;16.70;89.30;;;;;;5027058;28;20133;-77
2021/08/31 05:03:22;;;;;;;3.53;1.50;;;16.70;89.30;;;;;;5010127;28;20139;-76
2021/08/31 05:05:49;;;;;;;3.80;1.40;;;16.80;89.30;;;;;;5023410;28;20128;-78
2021/08/31 05:08:16;;;;;;;4.38;1.95;;;16.80;89.30;;;;;;5025128;28;20111;-79
2021/08/31 05:10:44;;;;;;;7.38;2.22;;;16.80;89.20;;;;;;5032862;28;20111;-80
2021/08/31 05:13:11;;;;;;;5.82;1.95;;;16.80;89.20;;;;;;5025670;28;20083;-78
2021/08/31 05:15:38;;;;;;;4.88;1.67;;;16.80;89.20;;;;;;5024125;28;20124;-78
2021/08/31 05:18:05;;;;;;;4.50;1.45;;;16.80;89.20;;;;;;5027876;28;20481;-79
2021/08/31 05:20:32;;;;;;;4.13;1.95;;;16.80;89.10;;;;;;5013884;28;20135;-79
2021/08/31 05:23:01;;;;;;;3.35;1.52;;;16.90;89.10;;;;;;5028187;28;20051;-77
2021/08/31 05:25:28;;;;;;;5.57;1.60;;;16.80;89.10;;;;;;5048639;28;20065;-78
2021/08/31 05:27:56;;;;;;;4.38;1.70;;;16.90;89.10;;;;;;5029333;28;20037;-83
2021/08/31 05:30:23;;;;;;;5.05;2.22;;;16.90;89.00;;;;;;5035544;28;20808;-83
2021/08/31 05:32:50;;;;;;;5.60;1.85;;;16.90;89.00;;;;;;5021407;28;20435;-79
2021/08/31 05:35:17;;;;;;;5.25;1.83;;;16.90;89.00;;;;;;5051743;28;20522;-79
2021/08/31 05:37:44;;;;;;;5.25;2.17;;;16.90;88.90;;;;;;5007205;28;20085;-79
2021/08/31 05:40:12;;;;;;;4.97;1.85;;;16.90;88.90;;;;;;5020563;28;20049;-75
2021/08/31 05:42:39;;;;;;;3.75;1.95;;;16.90;88.90;;;;;;5019747;28;20045;-76
2021/08/31 05:45:06;;;;;;;4.85;2.05;;;16.90;88.90;;;;;;5047518;28;20052;-76
2021/08/31 05:47:33;;;;;;;3.70;2.03;;;16.90;88.80;;;;;;4993070;28;20064;-76
2021/08/31 05:50:00;;;;;;;4.40;1.58;;;16.90;88.80;;;;;;5008150;28;20053;-76
2021/08/31 05:52:27;;;;;;;6.18;2.10;;;17.00;88.80;;;;;;5035818;28;20107;-76
2021/08/31 05:54:54;;;;;;;4.35;1.38;;;17.00;88.60;;;;;;5015775;28;20516;-76
2021/08/31 05:57:21;;;;;;;3.08;1.25;;;17.00;88.60;;;;;;5022975;28;20116;-76
2021/08/31 05:59:48;;;;;;;4.47;1.45;;;17.00;88.60;;;;;;5041889;28;20053;-78
2021/08/31 06:02:17;;;;;;;3.30;1.55;;;17.10;88.60;;;;;;5059180;28;20048;-79
2021/08/31 06:04:45;;;;;;;5.15;1.77;;;17.10;88.50;;;;;;5037362;28;20401;-79
2021/08/31 06:07:12;;;;;;;4.85;1.80;;;17.10;88.40;;;;;;5043058;28;20549;-79
2021/08/31 06:09:41;;;;;;;6.45;2.05;;;17.20;88.40;;;;;;5034986;28;20029;-79
2021/08/31 06:12:13;;;;;;;9.68;2.42;;;17.20;88.30;;;;;;5042206;28;20071;-79
2021/08/31 06:14:41;;;;;;;5.38;2.75;;;17.20;88.10;;;;;;5056043;28;20040;-79
2021/08/31 06:17:08;;;;;;;4.72;2.42;;;17.20;88.20;;;;;;5035680;28;20052;-79
2021/08/31 06:19:36;;;;;;;6.53;2.28;;;17.20;88.10;;;;;;5048501;28;20072;-79
2021/08/31 06:22:06;;;;;;;5.78;2.17;;;17.20;88.10;;;;;;5040073;28;20083;-80
2021/08/31 06:24:33;;;;;;;5.03;1.67;;;17.30;88.00;;;;;;5033753;28;20094;-78
2021/08/31 06:27:00;;;;;;;7.70;2.05;;;17.20;88.00;;;;;;5034004;28;20405;-77
2021/08/31 06:29:27;;;;;;;4.15;1.63;;;17.30;88.00;;;;;;5035662;28;20046;-76
2021/08/31 06:31:55;;;;;;;4.18;1.77;;;17.30;88.00;;;;;;5018015;28;20065;-76
2021/08/31 06:34:22;;;;;;;4.53;2.28;;;17.30;88.00;;;;;;5044113;28;20041;-77
2021/08/31 06:36:49;;;;;;;5.78;2.10;;;17.30;88.00;;;;;;5053250;28;20095;-76
2021/08/31 06:39:17;;;;;;;4.72;1.58;;;17.30;87.80;;;;;;5018405;28;20037;-76
2021/08/31 06:41:44;;;;;;;4.47;1.95;;;17.30;87.90;;;;;;5001656;28;20080;-76
2021/08/31 06:44:11;;;;;;;5.75;2.38;;;17.40;87.90;;;;;;5051667;28;20048;-76
2021/08/31 06:46:38;;;;;;;3.38;2.00;;;17.40;87.80;;;;;;5019612;28;20045;-76
2021/08/31 06:49:11;;;;;;;3.90;1.73;;;17.40;87.80;;;;;;5025482;28;20098;-79
2021/08/31 06:51:38;;;;;;;4.38;2.00;;;17.40;87.70;;;;;;5036015;28;20044;-79
2021/08/31 06:54:05;;;;;;;5.63;1.95;;;17.50;87.70;;;;;;5028418;28;20033;-79
2021/08/31 06:56:32;;;;;;;5.97;2.17;;;17.50;87.60;;;;;;5034756;28;20060;-79
2021/08/31 06:58:59;;;;;;;4.80;2.08;;;17.60;87.50;;;;;;5051768;28;20029;-79
2021/08/31 07:01:31;;;;;;;5.18;2.03;;;17.60;87.30;;;;;;5018485;28;20190;-79
2021/08/31 07:03:58;;;;;;;7.13;1.85;;;17.70;87.30;;;;;;5035887;28;20045;-79
2021/08/31 07:06:25;;;;;;;5.07;1.60;;;17.70;87.20;;;;;;5012232;28;20417;-79
2021/08/31 07:08:52;;;;;;;6.50;1.88;;;17.80;87.10;;;;;;5016720;28;20111;-79
2021/08/31 07:11:19;;;;;;;5.80;1.88;;;17.80;87.00;;;;;;5038330;28;20044;-79
2021/08/31 07:13:47;;;;;;;4.68;1.77;;;17.90;86.90;;;;;;5055560;28;20116;-79
2021/08/31 07:16:14;;;;;;;5.32;2.03;;;17.90;86.80;;;;;;5052536;28;20041;-79
2021/08/31 07:18:56;;;;;;;5.35;1.92;;;18.00;86.60;;;;;;5036085;28;20032;-79
2021/08/31 07:21:23;;;;;;;6.13;2.22;;;18.00;86.50;;;;;;5037705;28;20094;-77
2021/08/31 07:23:50;;;;;;;5.68;2.50;;;18.00;86.50;;;;;;5041663;28;20047;-76
2021/08/31 07:26:17;;;;;;;3.22;1.77;;;18.00;86.40;;;;;;5035269;28;20072;-76
2021/08/31 07:28:43;;;;;;;7.95;2.70;;;18.10;86.50;;;;;;5008354;28;20473;-76
2021/08/31 07:31:23;;;;;;;3.95;1.70;;;18.10;86.30;;;;;;5033905;28;20089;-78
2021/08/31 07:33:51;;;;;;;5.22;1.85;;;18.20;86.30;;;;;;5035751;28;20045;-77
2021/08/31 07:36:21;;;;;;;5.53;2.03;;;18.30;86.20;;;;;;5016999;28;20048;-78
2021/08/31 07:38:51;;;;;;;6.75;3.03;;;18.30;85.90;;;;;;5050431;28;20032;-78
2021/08/31 07:41:18;;;;;;;9.05;3.20;;;18.40;85.70;;;;;;5018048;28;20037;-77
2021/08/31 07:43:46;;;;;;;5.25;2.55;;;18.30;85.60;;;;;;5054507;28;20559;-77
2021/08/31 07:46:13;;;;;;;7.10;2.83;;;18.30;85.60;;;;;;5031248;28;20045;-78
2021/08/31 07:48:41;;;;;;;6.32;2.97;;;18.30;85.60;;;;;;5020492;28;20069;-77
2021/08/31 07:51:08;;;;;;;3.38;1.90;;;18.40;85.50;;;;;;5018101;28;20433;-77
2021/08/31 07:53:35;;;;;;;5.07;2.22;;;18.40;85.50;;;;;;5027881;28;20041;-80
2021/08/31 07:56:03;;;;;;;3.92;2.05;;;18.50;85.30;;;;;;5043807;28;20041;-80
2021/08/31 07:58:30;;;;;;;5.60;2.55;;;18.50;85.30;;;;;;5036703;28;20046;-80
2021/08/31 08:00:57;;;;;;;4.57;2.45;;;18.60;85.10;;;;;;4997936;28;20053;-81
2021/08/31 08:03:24;;;;;;;5.50;2.92;;;18.60;84.90;;;;;;5018802;28;20085;-78
2021/08/31 08:05:52;;;;;;;4.85;2.20;;;18.60;84.90;;;;;;5004219;28;20124;-78
2021/08/31 08:08:20;;;;;;;5.93;2.42;;;18.70;84.90;;;;;;5027220;28;20048;-78
2021/08/31 08:10:48;;;;;;;3.30;1.80;;;18.80;84.80;;;;;;5034754;28;20032;-78
2021/08/31 08:13:15;;;;;;;5.38;2.17;;;18.80;84.60;;;;;;5060319;28;20045;-81
2021/08/31 08:15:42;;;;;;;4.18;1.52;;;18.90;84.50;;;;;;5058441;28;20404;-79
2021/08/31 08:18:09;;;;;;;4.93;2.15;;;18.90;84.50;;;;;;5041120;28;20075;-79
2021/08/31 08:20:41;;;;;;;6.32;2.00;;;19.00;84.40;;;;;;5019614;28;20103;-79
2021/08/31 08:23:09;;;;;;;2.85;1.52;;;19.00;84.40;;;;;;5021399;28;20052;-78
2021/08/31 08:25:36;;;;;;;4.15;1.38;;;18.90;84.40;;;;;;5029841;28;20045;-79
2021/08/31 08:28:18;;;;;;;3.70;1.35;;;19.00;84.50;;;;;;5029983;28;20499;-79
2021/08/31 08:30:45;;;;;;;5.32;2.00;;;19.00;84.40;;;;;;5005323;28;20091;-79
2021/08/31 08:33:12;;;;;;;5.65;1.90;;;19.10;84.80;;;;;;5004584;28;20052;-77
2021/08/31 08:35:39;;;;;;;3.97;1.60;;;19.20;83.90;;;;;;5023870;28;20207;-77
2021/08/31 08:38:06;;;;;;;5.30;1.90;;;19.30;83.70;;;;;;4995485;28;20124;-77
2021/08/31 08:40:35;;;;;;;7.82;2.40;;;19.30;83.30;;;;;;5004750;28;20504;-77
2021/08/31 08:43:03;;;;;;;5.65;2.30;;;19.30;82.90;;;;;;5035142;28;20037;-77
2021/08/31 08:45:32;;;;;;;3.55;1.98;;;19.30;82.90;;;;;;5027317;28;20132;-77
2021/08/31 08:47:59;;;;;;;4.75;2.13;;;19.40;82.90;;;;;;5036491;28;20474;-80
2021/08/31 08:50:28;;;;;;;4.72;2.25;;;19.40;82.40;;;;;;5037106;28;20041;-81
2021/08/31 08:52:56;;;;;;;6.10;2.33;;;19.40;82.30;;;;;;5039180;28;20044;-80
2021/08/31 08:55:25;;;;;;;5.38;2.50;;;19.40;82.20;;;;;;5036780;28;20053;-81
2021/08/31 08:57:52;;;;;;;5.03;2.38;;;19.50;81.80;;;;;;5031254;28;20086;-84
2021/08/31 09:00:20;;;;;;;3.25;1.60;;;19.60;81.50;;;;;;5019075;28;20114;-78
2021/08/31 09:02:50;;;;;;;5.90;2.22;;;19.80;81.40;;;;;;5038091;28;20584;-88
2021/08/31 09:05:39;;;;;;;5.13;2.33;;;19.90;80.90;;;;;;5027292;28;20493;-83
2021/08/31 09:08:31;;;;;;;4.65;2.15;;;20.10;80.50;;;;;;5038461;28;20057;-84
2021/08/31 09:11:17;;;;;;;3.75;1.65;;;20.00;80.60;;;;;;5024604;28;20125;-86
2021/08/31 09:13:44;;;;;;;5.70;1.92;;;20.10;80.50;;;;;;5042219;28;20038;-90
2021/08/31 09:16:42;;;;;;;4.70;2.05;;;20.10;80.30;;;;;;5000791;28;20048;-93
2021/08/31 09:19:09;;;;;;;3.47;1.80;;;20.30;79.70;;;;;;5012962;28;20048;-82
2021/08/31 09:21:49;;;;;;;4.25;2.20;;;20.20;79.10;;;;;;5019129;28;20073;-90
2021/08/31 09:28:39;;;;;;;4.25;2.22;;;20.20;79.20;;;;;;5046360;28;20033;-83
2021/08/31 09:31:12;;;;;;;4.45;1.95;;;20.30;79.30;;;;;;5037657;28;20044;-81
2021/08/31 09:33:45;;;;;;;5.00;2.38;;;20.50;79.00;;;;;;5015545;28;20041;-83
2021/08/31 09:36:24;;;;;;;5.03;2.08;;;20.50;78.70;;;;;;5017253;28;20102;-82
2021/08/31 09:39:12;;;;;;;5.57;2.08;;;20.50;78.60;;;;;;5017740;28;20041;-80
2021/08/31 09:41:40;;;;;;;4.80;1.83;;;20.30;78.60;;;;;;5023870;28;20084;-85
2021/08/31 09:44:11;;;;;;;2.70;1.30;;;20.10;79.00;;;;;;5030251;28;20091;-91
2021/08/31 09:47:04;;;;;;;4.18;1.75;;;20.00;79.10;;;;;;5030256;28;20071;-81
2021/08/31 09:49:32;;;;;;;6.32;2.05;;;20.00;78.90;;;;;;5032821;28;20505;-85
2021/08/31 09:52:16;;;;;;;3.63;1.80;;;20.00;78.70;;;;;;5043057;28;20049;-83
2021/08/31 09:54:47;;;;;;;3.30;1.70;;;20.10;78.40;;;;;;5016783;28;20401;-83
2021/08/31 09:57:30;;;;;;;3.13;1.50;;;20.20;78.30;;;;;;5009362;28;20041;-85
2021/08/31 10:00:00;;;;;;;;;;;20.40;77.90;;;;;;5026734;28;20041;-80
2021/08/31 10:02:27;;;;;;;3.88;1.60;;;20.50;77.90;;;;;;5049923;28;19944;-85
2021/08/31 10:04:56;;;;;;;4.82;2.72;;;20.80;77.60;;;;;;5033871;28;20386;-91
2021/08/31 10:08:09;;;;;;;4.88;2.70;;;21.10;75.70;;;;;;5023686;28;20048;-81
2021/08/31 10:10:38;;;;;;;4.78;1.80;;;21.20;75.70;;;;;;5022683;28;20052;-85
2021/08/31 10:13:17;;;;;;;4.57;1.67;;;21.10;75.70;;;;;;5002186;28;20057;-85
2021/08/31 10:15:47;;;;;;;4.15;2.28;;;21.00;76.10;;;;;;5032623;28;20064;-84
2021/08/31 10:18:16;;;;;;;3.70;1.85;;;21.10;76.00;;;;;;5022605;28;20128;-85
2021/08/31 10:20:52;;;;;;;4.18;1.80;;;21.10;75.90;;;;;;5036194;28;20040;-95
2021/08/31 10:23:29;;;;;;;3.92;2.10;;;21.10;75.70;;;;;;5029158;28;20071;-79
2021/08/31 10:26:27;;;;;;;5.30;2.47;;;21.10;75.30;;;;;;5031911;28;20040;-79
2021/08/31 10:29:16;;;;;;;6.50;2.50;;;21.00;75.60;;;;;;5031610;28;20052;-80
2021/08/31 10:31:55;;;;;;;4.80;2.00;;;21.00;75.90;;;;;;5050523;28;20485;-89
2021/08/31 10:34:30;;;;;;;4.15;1.60;;;21.10;76.10;;;;;;5022952;28;20044;-90
2021/08/31 10:37:15;;;;;;;3.42;1.60;;;21.30;75.70;;;;;;5015361;28;20081;-86
2021/08/31 10:40:10;;;;;;;3.07;1.30;;;21.30;75.30;;;;;;5024405;28;20516;-85
2021/08/31 10:42:40;;;;;;;2.47;1.48;;;21.40;75.20;;;;;;5016019;28;20046;-85
2021/08/31 10:45:25;;;;;;;3.30;1.58;;;21.50;75.20;;;;;;5039784;28;20057;-88
2021/08/31 10:47:58;;;;;;;2.83;1.17;;;21.70;74.60;;;;;;5052991;28;20044;-93
2021/08/31 10:50:48;;;;;;;5.03;1.88;;;21.80;74.50;;;;;;5036347;28;20072;-95
2021/08/31 10:53:41;;;;;;;2.58;1.48;;;22.00;73.90;;;;;;5033438;28;20111;-93
2021/08/31 10:56:21;;;;;;;3.30;1.58;;;21.90;73.90;;;;;;5037132;28;20047;-92
2021/08/31 11:03:55;;;;;;;3.92;1.30;;;21.40;74.50;;;;;;5054831;28;20559;-87
2021/08/31 11:10:39;;;;;;;3.83;1.88;;;21.80;73.20;;;;;;5007543;28;20045;-83
2021/08/31 11:13:17;;;;;;;3.00;1.17;;;21.80;73.10;;;;;;5049592;28;20095;-83
2021/08/31 11:15:49;;;;;;;2.92;1.27;;;21.70;73.00;;;;;;5018439;28;20053;-83
2021/08/31 11:18:34;;;;;;;3.25;1.45;;;21.60;73.10;;;;;;5030705;28;20120;-90
2021/08/31 11:21:03;;;;;;;4.60;1.30;;;21.40;73.60;;;;;;5036131;28;20037;-88
2021/08/31 11:23:31;;;;;;;2.85;1.40;;;21.50;73.70;;;;;;5024788;28;20045;-88
2021/08/31 11:26:22;;;;;;;2.85;1.35;;;21.80;72.90;;;;;;5004954;28;20049;-94
2021/08/31 11:29:14;;;;;;;5.93;1.88;;;22.80;70.60;;;;;;5028784;28;20064;-89
2021/08/31 11:32:04;;;;;;;5.03;1.98;;;24.00;68.10;;;;;;5020359;28;20048;-91
2021/08/31 11:34:34;;;;;;;3.35;1.88;;;24.00;66.80;;;;;;5025498;28;20045;-85
2021/08/31 11:37:05;;;;;;;3.58;1.45;;;24.40;66.60;;;;;;5041985;28;20036;-91
2021/08/31 11:39:33;;;;;;;3.65;1.27;;;24.00;66.90;;;;;;5044529;28;20041;-92
2021/08/31 11:42:14;;;;;;;2.45;1.20;;;23.60;68.10;;;;;;5035007;28;20140;-90
2021/08/31 11:44:58;;;;;;;3.25;1.65;;;23.90;67.60;;;;;;5031535;28;20044;-82
2021/08/31 11:47:27;;;;;;;2.75;1.30;;;23.80;67.40;;;;;;5022354;28;20163;-82
2021/08/31 11:49:59;;;;;;;3.53;1.60;;;23.80;67.70;;;;;;5037761;28;20445;-83
2021/08/31 11:52:26;;;;;;;;;;;24.40;66.60;;;;;;5021285;28;21489;-87
2021/08/31 11:54:58;;;;;;;2.53;1.10;;;24.70;65.80;;;;;;5028507;28;19921;-88
2021/08/31 11:57:33;;;;;;;;;;;24.20;66.40;;;;;;5020092;28;20044;-82
2021/08/31 12:00:00;;;;;;;3.80;1.50;;;23.70;66.80;;;;;;5042957;28;20639;-82
2021/08/31 12:02:41;;;;;;;2.88;1.27;;;23.20;68.10;;;;;;5025970;28;20055;-86
2021/08/31 12:05:09;;;;;;;2.83;1.20;;;23.20;68.60;;;;;;5022014;28;20041;-84
2021/08/31 12:07:41;;;;;;;2.60;1.60;;;24.20;67.20;;;;;;4994891;28;20055;-88
2021/08/31 12:10:38;;;;;;;2.35;1.35;;;24.90;65.00;;;;;;5038502;28;20040;-91
2021/08/31 12:13:14;;;;;;;3.28;1.33;;;24.60;64.60;;;;;;5030205;28;20421;-88
2021/08/31 12:15:41;;;;;;;2.85;1.30;;;24.10;66.20;;;;;;5004765;28;20036;-86
2021/08/31 12:18:18;;;;;;;3.08;1.20;;;23.90;66.80;;;;;;5029632;28;20041;-88
2021/08/31 12:20:47;;;;;;;5.03;1.92;;;23.60;66.70;;;;;;5028089;28;20075;-88
2021/08/31 12:23:14;;;;;;;3.38;1.30;;;23.30;66.70;;;;;;5024299;28;20127;-87
2021/08/31 12:25:46;;;;;;;4.53;1.33;;;23.10;67.60;;;;;;5011506;28;20044;-86
2021/08/31 12:28:14;;;;;;;;;;;22.90;68.00;;;;;;5008184;28;20502;-88
2021/08/31 12:30:43;;;;;;;2.95;1.02;;;22.70;68.60;;;;;;5037286;28;20284;-89
2021/08/31 12:33:14;;;;;;;2.50;1.20;;;22.60;69.00;;;;;;5013849;28;20382;-84
2021/08/31 12:35:47;;;;;;;3.97;1.55;;;22.50;69.00;;;;;;5006687;28;20065;-80
2021/08/31 12:38:18;;;;;;;2.95;1.13;;;22.50;69.20;;;;;;5015459;28;20091;-83
2021/08/31 12:40:55;;;;;;;4.10;1.53;;;22.60;69.00;;;;;;5013163;28;20055;-82
2021/08/31 12:43:26;;;;;;;3.15;1.38;;;22.70;67.80;;;;;;5026931;28;20379;-86
2021/08/31 12:45:56;;;;;;;3.50;1.42;;;22.80;67.90;;;;;;5019892;28;21120;-83
2021/08/31 12:48:38;;;;;;;3.97;1.55;;;22.80;67.90;;;;;;5046421;28;20047;-81
2021/08/31 12:51:06;;;;;;;2.65;1.20;;;22.70;68.00;;;;;;5032503;28;20091;-83
2021/08/31 12:53:39;;;;;;;2.72;1.10;;;22.60;68.40;;;;;;5023487;28;20497;-84
2021/08/31 12:56:11;;;;;;;2.42;1.10;;;22.50;68.80;;;;;;5023028;28;20565;-86
2021/08/31 12:58:44;;;;;;;3.80;1.63;;;22.40;69.00;;;;;;5035254;28;20046;-80
2021/08/31 13:01:20;;;;;;;4.10;1.83;;;22.50;68.80;;;;;;5031845;28;20030;-80
2021/08/31 13:03:49;;;;;;;4.30;1.75;;;22.50;68.10;;;;;;5043379;28;20046;-78
2021/08/31 13:06:40;;;;;;;3.90;1.58;;;22.50;67.80;;;;;;5026131;28;20095;-78
2021/08/31 13:09:10;;;;;;;4.47;1.48;;;22.50;67.60;;;;;;5031080;28;20045;-78
2021/08/31 13:11:41;;;;;;;5.20;1.30;;;22.50;67.90;;;;;;5032916;28;20041;-77
2021/08/31 13:14:16;;;;;;;3.65;1.48;;;22.50;68.00;;;;;;5031853;28;20037;-77
2021/08/31 13:16:45;;;;;;;4.65;1.23;;;22.50;67.80;;;;;;5049071;28;20070;-78